Time;durP1;ratioP1;P1;durP2;ratioP2;P2;SDS_P1;SDS_P2;PMS_P1;PMS_P2;Temp;Humidity;BMP_temperature;BMP_pressure;BME280_temperature;BME280_humidity;BME280_pressure;Samples;Min_cycle;Max_cycle;Signal;HPM_P1;HPM_P2
2022/11/22 01:20:18;;;;;;;18.43;11.43;;;;;;;1.61;100.00;97953.56;6160043;23;20233;-79
2022/11/22 01:22:44;;;;;;;17.57;11.27;;;;;;;1.62;100.00;97957.03;6158804;23;20206;-79
2022/11/22 01:25:11;;;;;;;19.90;12.20;;;;;;;1.64;100.00;97945.25;6159516;23;20187;-78
2022/11/22 01:27:37;;;;;;;17.97;11.30;;;;;;;1.57;100.00;97941.81;6158567;23;20203;-78
2022/11/22 01:30:05;;;;;;;19.83;12.30;;;;;;;1.63;100.00;97938.31;6156692;23;20206;-78
2022/11/22 01:32:31;;;;;;;21.87;12.10;;;;;;;1.68;100.00;97935.88;6158909;23;20282;-79
2022/11/22 01:34:58;;;;;;;20.60;12.07;;;;;;;1.69;100.00;97940.16;6160936;23;20222;-79
2022/11/22 01:37:24;;;;;;;19.27;11.87;;;;;;;1.65;100.00;97941.59;6161284;23;20210;-79
2022/11/22 01:39:51;;;;;;;21.57;13.10;;;;;;;1.75;100.00;97935.91;6163261;23;20204;-79
2022/11/22 01:42:18;;;;;;;17.40;11.80;;;;;;;1.70;100.00;97931.22;6145910;23;20217;-79
2022/11/22 01:44:47;;;;;;;18.97;11.93;;;;;;;1.76;100.00;97932.25;6165594;23;20218;-79
2022/11/22 01:47:18;;;;;;;19.60;11.80;;;;;;;1.83;100.00;97933.03;6114746;23;20262;-79
2022/11/22 01:49:51;;;;;;;20.43;12.03;;;;;;;1.92;100.00;97923.88;6114455;23;20221;-79
2022/11/22 01:52:20;;;;;;;19.23;11.80;;;;;;;1.90;100.00;97919.84;6137765;23;20210;-80
2022/11/22 01:54:52;;;;;;;18.60;12.07;;;;;;;1.95;100.00;97904.19;6140289;23;20230;-80
2022/11/22 01:57:22;;;;;;;18.70;12.63;;;;;;;1.92;100.00;97915.97;6136902;23;20247;-79
2022/11/22 02:00:02;;;;;;;18.40;12.67;;;;;;;1.90;100.00;97910.09;6135036;23;20214;-78
2022/11/22 02:02:32;;;;;;;18.50;12.60;;;;;;;1.90;100.00;97907.44;6122543;23;20198;-79
2022/11/22 02:05:02;;;;;;;19.80;12.17;;;;;;;1.95;100.00;97904.19;6134615;23;20218;-79
2022/11/22 02:07:52;;;;;;;17.83;12.23;;;;;;;2.06;100.00;97899.06;6134445;23;20207;-78
2022/11/22 02:10:22;;;;;;;16.40;11.83;;;;;;;1.98;100.00;97906.41;6159357;23;20229;-79
2022/11/22 02:12:50;;;;;;;17.53;11.83;;;;;;;1.96;100.00;97896.03;6136182;23;20660;-79
2022/11/22 02:15:17;;;;;;;16.83;11.50;;;;;;;1.91;100.00;97901.16;6136073;23;20270;-78
2022/11/22 02:17:44;;;;;;;18.40;12.20;;;;;;;1.93;100.00;97899.09;6113765;23;20234;-79
2022/11/22 02:20:11;;;;;;;18.63;12.90;;;;;;;1.97;100.00;97889.75;6127255;23;20213;-79
2022/11/22 02:22:54;;;;;;;17.97;12.57;;;;;;;2.06;100.00;97893.78;6140707;23;20210;-79
2022/11/22 02:25:46;;;;;;;17.40;11.87;;;;;;;2.10;100.00;97888.91;6133837;23;20264;-80
2022/11/22 02:28:13;;;;;;;16.67;12.33;;;;;;;2.12;100.00;97885.03;6195086;23;20209;-79
2022/11/22 02:30:40;;;;;;;18.77;13.37;;;;;;;2.10;100.00;97883.63;6145763;23;20206;-80
2022/11/22 02:33:08;;;;;;;18.03;12.77;;;;;;;2.11;100.00;97887.88;6171879;23;20732;-80
2022/11/22 02:35:34;;;;;;;16.77;12.33;;;;;;;2.20;100.00;97884.81;6199338;23;20208;-81
2022/11/22 02:38:07;;;;;;;16.30;12.63;;;;;;;2.16;100.00;97878.31;6170906;23;20209;-79
2022/11/22 02:40:44;;;;;;;17.03;12.70;;;;;;;2.15;100.00;97881.16;6190193;23;20282;-79
2022/11/22 02:43:14;;;;;;;19.17;12.77;;;;;;;2.11;100.00;97874.66;6164905;23;20205;-79
2022/11/22 02:45:41;;;;;;;19.00;13.20;;;;;;;2.15;100.00;97871.41;6163198;23;20214;-78
2022/11/22 02:48:11;;;;;;;17.80;12.77;;;;;;;2.11;100.00;97859.63;6136891;23;20280;-79
2022/11/22 02:50:38;;;;;;;19.33;13.33;;;;;;;1.98;100.00;97864.97;6188645;23;20524;-79
2022/11/22 02:53:05;;;;;;;18.37;12.60;;;;;;;1.97;100.00;97865.97;6164023;23;20195;-79
2022/11/22 02:55:32;;;;;;;20.03;13.23;;;;;;;1.98;100.00;97858.88;6141947;23;20217;-78
2022/11/22 02:57:59;;;;;;;19.70;13.17;;;;;;;2.00;100.00;97852.38;6192691;23;20293;-79
2022/11/22 03:00:25;;;;;;;19.73;12.67;;;;;;;1.98;100.00;97838.53;6192543;23;20202;-79
2022/11/22 03:02:52;;;;;;;19.27;13.30;;;;;;;1.94;100.00;97836.53;6192093;23;20209;-78
2022/11/22 03:05:19;;;;;;;21.50;13.73;;;;;;;1.79;100.00;97834.13;6192147;23;20226;-79
2022/11/22 03:07:45;;;;;;;18.53;12.33;;;;;;;1.83;100.00;97837.97;6165645;23;20208;-79
2022/11/22 03:10:12;;;;;;;21.93;13.73;;;;;;;1.89;100.00;97839.78;6203694;23;20193;-80
2022/11/22 03:12:40;;;;;;;19.33;12.70;;;;;;;1.93;100.00;97821.69;6148659;23;20206;-80
2022/11/22 03:15:07;;;;;;;19.23;12.70;;;;;;;1.92;100.00;97826.16;6136710;23;20209;-80
2022/11/22 03:17:41;;;;;;;20.03;13.30;;;;;;;1.79;100.00;97826.22;6167912;23;20210;-78
2022/11/22 03:20:08;;;;;;;19.83;13.37;;;;;;;1.83;100.00;97832.69;6185616;23;20571;-77
2022/11/22 03:22:35;;;;;;;19.83;13.10;;;;;;;1.88;100.00;97830.25;6186338;23;20210;-78
2022/11/22 03:25:02;;;;;;;20.67;13.60;;;;;;;1.95;100.00;97825.78;6159907;23;20670;-78
2022/11/22 03:44:08;;;;;;;20.87;12.97;;;;;;;1.88;100.00;97806.47;6197174;23;20268;-79
2022/11/22 03:46:35;;;;;;;19.47;13.30;;;;;;;1.75;100.00;97795.97;6175665;23;20537;-80
2022/11/22 03:49:02;;;;;;;21.67;13.40;;;;;;;1.73;100.00;97787.44;6152516;23;20216;-79
2022/11/22 03:55:40;;;;;;;18.20;12.77;;;;;;;1.68;100.00;97795.97;6195039;23;20209;-79
2022/11/22 03:58:09;;;;;;;16.73;11.90;;;;;;;1.73;100.00;97782.16;6145553;23;20214;-79
2022/11/22 04:00:35;;;;;;;21.07;13.33;;;;;;;1.77;100.00;97778.88;6195698;23;20194;-79
2022/11/22 04:03:02;;;;;;;19.80;12.80;;;;;;;1.75;100.00;97780.94;6196071;23;20206;-79
2022/11/22 04:05:29;;;;;;;18.20;12.03;;;;;;;1.86;100.00;97790.03;6194893;23;20206;-80
2022/11/22 04:07:58;;;;;;;18.83;13.17;;;;;;;1.90;100.00;97785.16;6194222;23;20262;-79
2022/11/22 04:10:25;;;;;;;19.90;13.07;;;;;;;2.01;100.00;97781.84;6136446;23;20210;-79
2022/11/22 04:12:57;;;;;;;17.33;12.50;;;;;;;2.05;100.00;97778.56;6170557;23;20276;-80
2022/11/22 04:15:24;;;;;;;19.07;13.50;;;;;;;2.10;100.00;97780.59;6167231;23;20205;-79
2022/11/22 04:17:51;;;;;;;20.37;13.10;;;;;;;2.06;100.00;97777.56;6193875;23;20289;-81
2022/11/22 04:23:20;;;;;;;19.30;12.63;;;;;;;2.31;100.00;97782.09;6171919;23;20202;-79
2022/11/22 04:25:52;;;;;;;17.93;12.20;;;;;;;2.38;100.00;97782.91;6118589;23;20249;-79
2022/11/22 04:28:21;;;;;;;19.10;12.50;;;;;;;2.40;100.00;97783.47;6175870;23;20214;-80
2022/11/22 04:33:56;;;;;;;18.53;12.63;;;;;;;2.32;100.00;97778.44;6187319;23;20220;-81
2022/11/22 04:36:27;;;;;;;19.43;13.30;;;;;;;2.36;100.00;97782.28;6146012;23;20204;-80
2022/11/22 04:39:03;;;;;;;16.80;12.63;;;;;;;2.29;100.00;97779.66;6186380;23;20193;-83
2022/11/22 04:44:39;;;;;;;16.67;12.37;;;;;;;2.36;100.00;97783.09;6160831;23;20198;-83
2022/11/22 04:44:41;;;;;;;15.90;11.80;;;;;;;2.35;100.00;97780.66;6147678;23;20173;-82
2022/11/22 04:52:56;;;;;;;17.47;12.10;;;;;;;2.41;100.00;97777.19;6207497;23;20151;-83
2022/11/22 04:55:25;;;;;;;16.17;11.67;;;;;;;2.40;100.00;97775.56;6157328;23;20173;-83
2022/11/22 04:57:56;;;;;;;16.33;11.90;;;;;;;2.44;100.00;97780.19;6181086;23;20190;-83
2022/11/22 05:00:29;;;;;;;16.73;12.10;;;;;;;2.35;100.00;97770.09;6183718;23;20175;-84
2022/11/22 05:02:57;;;;;;;18.20;12.30;;;;;;;2.29;100.00;97769.09;6206163;23;20169;-82
2022/11/22 05:05:25;;;;;;;17.33;12.57;;;;;;;2.38;100.00;97769.69;6206603;23;20158;-84
2022/11/22 05:07:53;;;;;;;18.60;12.13;;;;;;;2.28;100.00;97764.88;6131556;23;20162;-83
2022/11/22 05:10:20;;;;;;;18.03;12.37;;;;;;;2.33;100.00;97767.69;6181175;23;20170;-83
2022/11/22 05:12:52;;;;;;;17.43;12.27;;;;;;;2.28;100.00;97762.22;6181891;23;20162;-83
2022/11/22 05:15:28;;;;;;;16.57;11.53;;;;;;;2.36;100.00;97767.25;6208826;23;20190;-84
2022/11/22 05:17:59;;;;;;;17.53;11.83;;;;;;;2.35;100.00;97767.44;6212517;23;20146;-84
2022/11/22 05:20:59;;;;;;;16.40;12.00;;;;;;;2.28;100.00;97745.56;6202592;23;20202;-84
2022/11/22 06:20:12;;;;;;;16.87;11.30;;;;;;;2.30;100.00;97773.38;6159180;23;20222;-80
2022/11/22 06:22:38;;;;;;;15.70;11.20;;;;;;;2.34;100.00;97785.13;6133135;23;20207;-80
2022/11/22 06:25:06;;;;;;;15.43;11.40;;;;;;;2.37;100.00;97805.88;6170119;23;20281;-80
2022/11/22 06:27:32;;;;;;;16.20;12.23;;;;;;;2.46;100.00;97814.34;6190997;23;20285;-81
2022/11/22 06:29:59;;;;;;;17.63;12.87;;;;;;;2.56;100.00;97801.50;6167133;23;20208;-80
2022/11/22 06:32:26;;;;;;;15.53;11.47;;;;;;;2.52;100.00;97795.03;6192599;23;20194;-80
2022/11/22 06:34:52;;;;;;;17.37;11.80;;;;;;;2.54;100.00;97792.94;6194101;23;20204;-81
2022/11/22 06:37:19;;;;;;;17.07;12.20;;;;;;;2.66;100.00;97801.81;6144834;23;20217;-81
2022/11/22 06:39:45;;;;;;;18.93;13.20;;;;;;;2.65;100.00;97800.22;6196488;23;20258;-81
2022/11/22 06:42:12;;;;;;;18.17;12.50;;;;;;;2.79;100.00;97806.22;6194790;23;20288;-81
2022/11/22 06:44:39;;;;;;;19.80;13.53;;;;;;;2.81;100.00;97796.22;6194504;23;20210;-81
2022/11/22 06:47:05;;;;;;;17.83;12.87;;;;;;;2.95;100.00;97803.03;6193615;23;20217;-81
2022/11/22 06:49:32;;;;;;;16.63;11.97;;;;;;;3.02;100.00;97799.34;6193802;23;20667;-81
2022/11/22 06:51:59;;;;;;;16.80;11.93;;;;;;;3.08;100.00;97801.09;6195449;23;20202;-82
2022/11/22 06:54:25;;;;;;;19.57;13.10;;;;;;;3.14;100.00;97799.44;6169137;23;20220;-81
2022/11/22 06:56:52;;;;;;;19.23;13.27;;;;;;;3.20;100.00;97795.13;6195303;23;20722;-81
2022/11/22 06:59:19;;;;;;;18.93;12.30;;;;;;;3.29;100.00;97791.97;6195106;23;20272;-81
2022/11/22 07:01:45;;;;;;;16.90;12.20;;;;;;;3.35;100.00;97791.13;6196274;23;20217;-81
2022/11/22 07:04:13;;;;;;;17.43;11.73;;;;;;;3.51;100.00;97795.81;6128546;23;20214;-79
2022/11/22 07:06:39;;;;;;;16.23;12.13;;;;;;;3.57;100.00;97791.50;6173253;23;20229;-80
2022/11/22 07:09:08;;;;;;;14.50;10.77;;;;;;;3.57;100.00;97801.28;6170095;23;20198;-82
2022/11/22 07:11:35;;;;;;;15.20;11.43;;;;;;;3.75;100.00;97802.09;6171155;23;20194;-81
2022/11/22 07:14:03;;;;;;;16.77;11.60;;;;;;;3.76;100.00;97789.66;6169586;23;20228;-79
2022/11/22 07:16:36;;;;;;;15.90;11.50;;;;;;;3.92;100.00;97803.13;6171321;23;20255;-81
2022/11/22 07:19:03;;;;;;;16.73;12.07;;;;;;;3.96;100.00;97808.81;6170429;23;20202;-81
2022/11/22 07:21:31;;;;;;;15.70;11.60;;;;;;;3.98;100.00;97809.38;6195656;23;20214;-81
2022/11/22 07:23:58;;;;;;;17.17;12.63;;;;;;;4.06;100.00;97809.06;6194418;23;20210;-81
2022/11/22 07:26:25;;;;;;;15.67;11.47;;;;;;;4.15;100.00;97818.38;6166742;23;20202;-81
2022/11/22 07:28:52;;;;;;;16.63;11.47;;;;;;;4.12;100.00;97816.16;6168174;23;20277;-80
2022/11/22 07:31:19;;;;;;;15.67;11.77;;;;;;;4.23;100.00;97817.25;6144910;23;20663;-80
2022/11/22 07:33:46;;;;;;;15.90;11.70;;;;;;;4.33;100.00;97825.50;6118571;23;20256;-80
2022/11/22 07:36:18;;;;;;;16.23;11.53;;;;;;;4.38;100.00;97822.97;6170149;23;20210;-80
2022/11/22 07:38:46;;;;;;;13.27;10.57;;;;;;;4.42;100.00;97824.16;6147706;23;20681;-80
2022/11/22 07:41:14;;;;;;;13.97;10.90;;;;;;;4.52;100.00;97823.63;6172149;23;20210;-80
2022/11/22 07:43:41;;;;;;;14.70;10.57;;;;;;;4.60;100.00;97831.25;6171051;23;20209;-80
2022/11/22 07:46:31;;;;;;;14.57;11.53;;;;;;;4.69;100.00;97835.22;6151671;23;20213;-80
2022/11/22 07:49:00;;;;;;;14.23;10.87;;;;;;;4.67;100.00;97824.81;6177130;23;20679;-81
2022/11/22 07:51:27;;;;;;;13.97;10.90;;;;;;;4.80;100.00;97835.25;6199432;23;20206;-81
2022/11/22 07:53:55;;;;;;;13.63;10.83;;;;;;;4.91;100.00;97841.63;6175999;23;20206;-81
2022/11/22 07:56:22;;;;;;;14.97;11.67;;;;;;;4.94;100.00;97841.19;6126550;23;20206;-81
2022/11/22 07:58:49;;;;;;;16.60;11.70;;;;;;;5.02;100.00;97840.84;6173884;23;20258;-81
2022/11/22 08:01:20;;;;;;;15.77;12.87;;;;;;;4.98;100.00;97833.56;6177053;23;20286;-80
2022/11/22 08:03:47;;;;;;;15.37;12.80;;;;;;;5.07;100.00;97840.16;6176690;23;20202;-81
2022/11/22 08:06:15;;;;;;;15.80;12.83;;;;;;;5.14;100.00;97841.66;6114182;23;20202;-80
2022/11/22 08:08:43;;;;;;;14.17;12.30;;;;;;;5.29;100.00;97862.47;6174857;23;20205;-81
2022/11/22 08:11:10;;;;;;;14.50;12.20;;;;;;;5.35;100.00;97848.31;6150925;23;20262;-80
2022/11/22 08:13:37;;;;;;;15.90;13.03;;;;;;;5.44;100.00;97852.22;6201847;23;20277;-81
2022/11/22 08:16:07;;;;;;;17.13;13.33;;;;;;;5.57;100.00;97857.31;6200120;23;20232;-80
2022/11/22 08:18:36;;;;;;;16.13;12.97;;;;;;;5.66;100.00;97860.44;6152350;23;20221;-81
2022/11/22 08:21:11;;;;;;;16.20;12.60;;;;;;;5.73;100.00;97861.97;6151033;23;20217;-80
2022/11/22 08:23:39;;;;;;;17.30;12.60;;;;;;;5.82;100.00;97858.94;6174929;23;20234;-80
2022/11/22 08:26:07;;;;;;;16.37;13.10;;;;;;;5.94;100.00;97865.88;6148375;23;20205;-80
2022/11/22 08:28:34;;;;;;;16.87;13.07;;;;;;;6.05;100.00;97875.72;6198827;23;20223;-81
2022/11/22 08:31:04;;;;;;;14.17;11.53;;;;;;;6.08;100.00;97867.25;6172760;23;20213;-81
2022/11/22 08:33:31;;;;;;;17.50;12.70;;;;;;;6.17;100.00;97878.34;6172304;23;20257;-81
2022/11/22 08:35:58;;;;;;;14.67;12.27;;;;;;;6.12;100.00;97876.38;6201560;23;20206;-81
2022/11/22 08:38:26;;;;;;;15.83;11.20;;;;;;;6.22;100.00;97880.31;6200640;23;20181;-81
2022/11/22 08:40:54;;;;;;;13.27;10.87;;;;;;;6.28;100.00;97884.69;6181255;23;20202;-81
2022/11/22 08:43:22;;;;;;;14.87;12.30;;;;;;;6.30;100.00;97887.94;6179658;23;20193;-81
2022/11/22 08:45:54;;;;;;;13.83;10.93;;;;;;;6.27;100.00;97886.53;6150444;23;20218;-81
2022/11/22 08:48:21;;;;;;;14.23;11.57;;;;;;;6.35;100.00;97896.81;6188106;23;20210;-80
2022/11/22 08:50:56;;;;;;;15.03;11.93;;;;;;;6.37;100.00;97897.41;6189718;23;20202;-79
2022/11/22 08:53:24;;;;;;;13.57;11.07;;;;;;;6.52;100.00;97899.56;6164443;23;20220;-80
2022/11/22 08:55:51;;;;;;;15.83;12.33;;;;;;;6.43;100.00;97899.13;6190326;23;20216;-79
2022/11/22 08:58:17;;;;;;;16.67;12.20;;;;;;;6.49;100.00;97908.81;6190970;23;20233;-80
2022/11/22 09:00:44;;;;;;;17.30;12.70;;;;;;;6.36;100.00;97914.41;6115304;23;20229;-80
2022/11/22 09:03:11;;;;;;;16.97;12.80;;;;;;;6.35;100.00;97915.44;6192505;23;20213;-80
2022/11/22 09:05:37;;;;;;;14.33;11.73;;;;;;;6.24;100.00;97923.44;6166931;23;20261;-80
2022/11/22 09:08:24;;;;;;;17.97;12.27;;;;;;;6.23;100.00;97922.63;6165495;23;20224;-80
2022/11/22 09:10:53;;;;;;;15.27;12.33;;;;;;;6.12;100.00;97916.28;6170814;23;20261;-80
2022/11/22 09:13:22;;;;;;;14.60;11.63;;;;;;;6.06;100.00;97911.09;6178023;23;20204;-80
2022/11/22 09:15:49;;;;;;;18.43;12.23;;;;;;;6.02;100.00;97917.91;6154472;23;20206;-80
2022/11/22 09:18:17;;;;;;;16.57;12.47;;;;;;;6.01;100.00;97916.28;6182153;23;20227;-81
2022/11/22 09:20:47;;;;;;;14.93;12.23;;;;;;;5.97;100.00;97913.25;6195279;23;20187;-82
2022/11/22 09:23:15;;;;;;;18.87;12.57;;;;;;;6.02;100.00;97924.00;6166652;23;20203;-81
2022/11/22 09:25:43;;;;;;;14.70;12.40;;;;;;;5.99;100.00;97927.16;6157604;23;20217;-81
2022/11/22 09:28:10;;;;;;;16.33;12.77;;;;;;;5.95;100.00;97926.00;6167818;23;20237;-79
2022/11/22 09:30:37;;;;;;;17.07;13.90;;;;;;;6.15;100.00;97928.31;6159930;23;20211;-80
2022/11/22 09:33:03;;;;;;;19.90;15.10;;;;;;;6.13;100.00;97930.38;6157479;23;20205;-79
2022/11/22 09:35:30;;;;;;;18.57;13.83;;;;;;;6.18;100.00;97926.00;6158262;23;20196;-80
2022/11/22 09:37:57;;;;;;;16.77;13.53;;;;;;;6.31;100.00;97932.91;6161581;23;20202;-80
2022/11/22 09:40:23;;;;;;;18.07;13.30;;;;;;;6.34;100.00;97936.97;6162369;23;20281;-80
2022/11/22 09:42:56;;;;;;;15.97;12.67;;;;;;;6.54;100.00;97927.53;6153005;23;20241;-79
2022/11/22 09:45:35;;;;;;;14.73;12.43;;;;;;;6.69;100.00;97931.56;6155387;23;20215;-79
2022/11/22 09:48:23;;;;;;;16.67;13.80;;;;;;;6.80;100.00;97928.88;6163987;23;20711;-80
2022/11/22 09:51:05;;;;;;;15.50;12.67;;;;;;;6.98;100.00;97931.34;6158807;23;20195;-79
2022/11/22 09:53:37;;;;;;;16.43;13.37;;;;;;;7.09;100.00;97919.06;6154034;23;20218;-79
2022/11/22 09:56:10;;;;;;;19.40;16.57;;;;;;;7.10;100.00;97923.31;6155556;23;20307;-79
2022/11/22 09:58:50;;;;;;;38.00;28.00;;;;;;;7.19;100.00;97929.06;6154494;23;20276;-78
2022/11/22 10:01:26;;;;;;;20.67;16.23;;;;;;;7.19;100.00;97929.06;6154810;23;20210;-79
2022/11/22 10:04:00;;;;;;;20.17;15.47;;;;;;;7.19;100.00;97921.88;6156532;23;20730;-80
2022/11/22 10:06:31;;;;;;;16.53;13.10;;;;;;;6.71;100.00;97924.16;6162371;23;20214;-80
2022/11/22 10:09:21;;;;;;;16.67;12.50;;;;;;;6.79;100.00;97911.28;6160664;23;20206;-80
2022/11/22 10:11:53;;;;;;;14.67;12.10;;;;;;;6.77;100.00;97915.22;6160128;23;20210;-80
2022/11/22 10:14:29;;;;;;;15.23;12.97;;;;;;;6.69;100.00;97915.59;6160834;23;20222;-80
2022/11/22 10:17:31;;;;;;;14.83;12.47;;;;;;;6.61;100.00;97914.94;6164924;23;20734;-81
2022/11/22 10:20:05;;;;;;;15.43;12.10;;;;;;;6.81;100.00;97922.50;6162268;23;20592;-79
2022/11/22 10:22:37;;;;;;;15.17;11.83;;;;;;;6.81;100.00;97911.84;6171859;23;20201;-81
2022/11/22 10:25:16;;;;;;;15.53;12.00;;;;;;;6.91;100.00;97916.56;6150083;23;20202;-81
2022/11/22 10:27:47;;;;;;;13.17;11.07;;;;;;;6.94;100.00;97911.59;6192003;23;20655;-80
2022/11/22 10:30:16;;;;;;;14.13;11.10;;;;;;;6.84;100.00;97919.38;6143298;23;20225;-80
2022/11/22 10:32:55;;;;;;;14.80;11.27;;;;;;;6.85;100.00;97923.66;6173232;23;20254;-81
2022/11/22 10:35:34;;;;;;;16.23;11.97;;;;;;;6.83;100.00;97919.59;6173821;23;20210;-81
2022/11/22 10:38:25;;;;;;;13.60;11.47;;;;;;;6.88;100.00;97925.84;6192163;23;20240;-79
2022/11/22 10:41:30;;;;;;;14.73;10.97;;;;;;;6.85;100.00;97921.00;6168838;23;20198;-80
2022/11/22 10:44:20;;;;;;;13.17;10.90;;;;;;;6.83;100.00;97932.91;6173630;23;20221;-80
2022/11/22 10:46:55;;;;;;;15.27;11.93;;;;;;;6.84;100.00;97923.88;6145953;23;20198;-80
2022/11/22 10:49:33;;;;;;;14.40;11.60;;;;;;;6.82;100.00;97933.94;6199756;23;20206;-80
2022/11/22 10:52:27;;;;;;;14.80;13.17;;;;;;;6.85;100.00;97934.31;6203123;23;20212;-81
2022/11/22 10:55:18;;;;;;;15.90;13.53;;;;;;;6.90;100.00;97925.59;6195794;23;20206;-81
2022/11/22 10:57:58;;;;;;;17.83;14.23;;;;;;;7.00;100.00;97925.78;6194367;23;20210;-80
2022/11/22 11:00:27;;;;;;;19.30;14.90;;;;;;;7.08;100.00;97930.75;6169444;23;20909;-80
2022/11/22 11:03:00;;;;;;;16.40;14.70;;;;;;;7.01;100.00;97927.41;6123483;23;20210;-80
2022/11/22 11:05:34;;;;;;;16.80;15.00;;;;;;;6.96;100.00;97914.00;6202287;23;20188;-80
2022/11/22 11:08:03;;;;;;;16.37;14.33;;;;;;;6.96;100.00;97908.66;6168147;23;20210;-79
2022/11/22 11:10:50;;;;;;;19.10;16.67;;;;;;;6.87;100.00;97897.59;6188021;23;20229;-79
2022/11/22 11:13:23;;;;;;;20.30;15.53;;;;;;;6.91;100.00;97904.06;6165997;23;20201;-81
2022/11/22 11:15:53;;;;;;;19.90;16.30;;;;;;;6.77;100.00;97897.41;6145523;23;20214;-81
2022/11/22 11:18:47;;;;;;;20.30;16.83;;;;;;;6.87;100.00;97897.59;6131929;23;20207;-80
2022/11/22 11:21:14;;;;;;;19.60;16.23;;;;;;;6.90;100.00;97899.81;6159823;23;20199;-80
2022/11/22 11:23:41;;;;;;;19.23;16.13;;;;;;;6.89;100.00;97908.00;6158693;23;20206;-79
2022/11/22 11:26:26;;;;;;;20.20;16.47;;;;;;;6.97;100.00;97912.94;6155224;23;20277;-79
2022/11/22 11:29:14;;;;;;;18.60;16.33;;;;;;;6.97;100.00;97911.09;6158790;23;20250;-80
2022/11/22 11:31:43;;;;;;;19.10;16.10;;;;;;;7.02;100.00;97908.53;6159258;23;20238;-80
2022/11/22 11:34:28;;;;;;;22.13;17.10;;;;;;;7.02;100.00;97903.22;6159450;23;20656;-79
2022/11/22 11:36:56;;;;;;;20.83;17.17;;;;;;;7.12;100.00;97907.09;6161523;23;20217;-80
2022/11/22 11:39:30;;;;;;;20.43;17.50;;;;;;;7.30;100.00;97906.88;6136856;23;20221;-80
2022/11/22 11:41:58;;;;;;;20.83;17.20;;;;;;;7.42;100.00;97892.44;6160875;23;20210;-80
2022/11/22 11:44:36;;;;;;;20.33;17.43;;;;;;;7.61;100.00;97884.22;6161026;23;20203;-80
2022/11/22 11:47:03;;;;;;;19.17;16.30;;;;;;;7.67;100.00;97896.56;6161889;23;20206;-80
2022/11/22 11:49:32;;;;;;;18.50;16.20;;;;;;;7.62;100.00;97905.31;6161542;23;20205;-80
2022/11/22 11:52:27;;;;;;;17.90;15.07;;;;;;;7.56;100.00;97902.81;6159392;23;20214;-80
2022/11/22 11:54:59;;;;;;;18.13;15.43;;;;;;;7.47;100.00;97900.53;6181324;23;20206;-80
2022/11/22 11:57:28;;;;;;;18.37;15.63;;;;;;;7.36;100.00;97898.75;6160022;23;20285;-79
2022/11/22 11:59:58;;;;;;;18.37;15.53;;;;;;;7.26;100.00;97895.09;6159881;23;20775;-80
2022/11/22 12:02:38;;;;;;;16.93;15.13;;;;;;;7.40;100.00;97896.41;6161773;23;20202;-80
2022/11/22 12:05:23;;;;;;;18.00;15.53;;;;;;;7.56;100.00;97900.94;6162259;23;20260;-82
2022/11/22 12:07:50;;;;;;;16.80;14.50;;;;;;;7.53;100.00;97898.75;6160352;23;20214;-80
2022/11/22 12:10:55;;;;;;;17.23;14.43;;;;;;;7.37;100.00;97902.22;6160065;23;20660;-80
2022/11/22 12:13:39;;;;;;;16.03;13.57;;;;;;;7.33;100.00;97904.53;6160375;23;20598;-81
2022/11/22 12:16:36;;;;;;;17.53;14.97;;;;;;;7.32;100.00;97902.16;6161042;23;20209;-80
2022/11/22 12:19:33;;;;;;;16.17;13.43;;;;;;;7.38;100.00;97895.84;6161489;23;20206;-80
2022/11/22 12:22:24;;;;;;;14.53;13.03;;;;;;;7.41;100.00;97909.50;6160543;23;20262;-80
2022/11/22 12:25:26;;;;;;;16.23;13.77;;;;;;;7.45;100.00;97918.63;6160711;23;20222;-79
2022/11/22 12:28:11;;;;;;;15.50;13.30;;;;;;;7.44;100.00;97910.88;6160385;23;20211;-79
2022/11/22 12:30:40;;;;;;;16.70;14.27;;;;;;;7.38;100.00;97914.47;6161298;23;20206;-79
2022/11/22 12:33:09;;;;;;;14.90;13.40;;;;;;;7.36;100.00;97912.06;6162525;23;20202;-80
2022/11/22 12:35:42;;;;;;;15.23;13.60;;;;;;;7.28;100.00;97912.44;6162072;23;20283;-81
2022/11/22 12:38:29;;;;;;;14.87;13.27;;;;;;;7.23;100.00;97911.56;6162247;23;20223;-80
2022/11/22 12:40:59;;;;;;;14.87;12.77;;;;;;;7.16;100.00;97910.91;6137063;23;20206;-80
2022/11/22 12:43:29;;;;;;;14.53;13.00;;;;;;;6.98;100.00;97915.38;6165920;23;20217;-79
2022/11/22 12:46:05;;;;;;;15.03;12.53;;;;;;;6.96;100.00;97919.31;6160091;23;20675;-80
2022/11/22 12:48:40;;;;;;;15.30;12.40;;;;;;;6.88;100.00;97922.38;6156631;23;20244;-79
2022/11/22 12:51:20;;;;;;;15.43;13.70;;;;;;;6.80;100.00;97925.41;6156962;23;20227;-79
2022/11/22 12:53:47;;;;;;;16.37;13.10;;;;;;;6.87;100.00;97926.06;6159110;23;20652;-79
2022/11/22 12:56:21;;;;;;;15.70;12.77;;;;;;;6.89;100.00;97931.97;6157957;23;20211;-79
2022/11/22 12:58:58;;;;;;;14.20;12.70;;;;;;;6.79;100.00;97934.44;6157281;23;20221;-79
2022/11/22 13:01:33;;;;;;;15.97;12.63;;;;;;;6.67;100.00;97939.00;6157148;23;20220;-79
2022/11/22 13:04:09;;;;;;;18.70;15.47;;;;;;;6.72;100.00;97937.22;6158510;23;20281;-79
2022/11/22 13:07:05;;;;;;;18.50;15.13;;;;;;;6.83;100.00;97938.22;6171787;23;20229;-79
2022/11/22 13:09:34;;;;;;;26.13;20.33;;;;;;;6.94;100.00;97935.56;6167712;23;20282;-79
2022/11/22 13:12:16;;;;;;;15.37;13.20;;;;;;;6.96;100.00;97932.63;6158508;23;20207;-78
2022/11/22 13:14:53;;;;;;;16.13;14.07;;;;;;;6.90;100.00;97936.25;6157251;23;20285;-79
2022/11/22 13:17:25;;;;;;;23.47;17.87;;;;;;;6.91;100.00;97935.19;6158947;23;20214;-79
2022/11/22 13:19:56;;;;;;;16.20;13.17;;;;;;;6.86;100.00;97929.78;6157025;23;20207;-79
2022/11/22 13:22:41;;;;;;;14.13;12.57;;;;;;;6.96;100.00;97943.28;6187367;23;20278;-79
2022/11/22 13:25:26;;;;;;;14.60;13.00;;;;;;;7.04;100.00;97940.25;6161311;23;20192;-79
2022/11/22 13:27:53;;;;;;;16.87;14.23;;;;;;;7.04;100.00;97934.94;6186351;23;20220;-80
2022/11/22 13:30:22;;;;;;;15.03;13.43;;;;;;;6.94;100.00;97932.88;6185389;23;20705;-78
2022/11/22 13:32:51;;;;;;;14.83;12.37;;;;;;;6.86;100.00;97922.59;6159877;23;20216;-79
2022/11/22 13:35:31;;;;;;;16.73;13.27;;;;;;;6.94;100.00;97937.41;6160201;23;20202;-79
2022/11/22 13:38:01;;;;;;;26.10;22.13;;;;;;;6.98;100.00;97934.03;6187795;23;20282;-79
2022/11/22 13:40:40;;;;;;;17.20;14.70;;;;;;;6.96;100.00;97933.44;6124212;23;20284;-79
2022/11/22 13:43:10;;;;;;;18.60;13.53;;;;;;;6.88;100.00;97935.69;6161865;23;20202;-79
2022/11/22 13:45:48;;;;;;;15.37;12.57;;;;;;;6.83;100.00;97927.59;6186985;23;20299;-79
2022/11/22 13:48:40;;;;;;;14.43;12.87;;;;;;;6.82;100.00;97926.78;6161357;23;20599;-79
2022/11/22 13:51:12;;;;;;;15.47;12.40;;;;;;;6.83;100.00;97922.25;6187502;23;20202;-80
2022/11/22 13:53:43;;;;;;;14.23;12.73;;;;;;;6.85;100.00;97931.66;6161652;23;20212;-80
2022/11/22 13:56:19;;;;;;;16.67;13.53;;;;;;;6.95;100.00;97934.47;6187480;23;20561;-79
2022/11/22 13:58:51;;;;;;;14.57;12.70;;;;;;;6.97;100.00;97942.25;6186860;23;20804;-79
2022/11/22 14:01:32;;;;;;;14.43;12.60;;;;;;;6.94;100.00;97943.53;6162280;23;20674;-80
2022/11/22 14:04:14;;;;;;;14.00;12.50;;;;;;;6.88;100.00;97947.13;6160076;23;20218;-79
2022/11/22 14:06:48;;;;;;;18.03;15.43;;;;;;;6.79;100.00;97947.75;6186443;23;20232;-80
2022/11/22 14:09:53;;;;;;;21.30;18.37;;;;;;;6.58;100.00;97951.81;6160787;23;20213;-80
2022/11/22 14:12:58;;;;;;;23.00;20.67;;;;;;;6.44;100.00;97953.94;6187257;23;20242;-79
2022/11/22 14:15:49;;;;;;;22.93;20.53;;;;;;;6.36;100.00;97956.97;6182242;23;20207;-79
2022/11/22 14:18:25;;;;;;;22.93;20.63;;;;;;;6.32;100.00;97952.34;6160200;23;20593;-79
2022/11/22 14:21:07;;;;;;;23.53;21.13;;;;;;;6.23;100.00;97956.38;6160469;23;20611;-79
2022/11/22 14:24:08;;;;;;;24.63;22.07;;;;;;;6.17;100.00;97956.28;6186491;23;20198;-79
2022/11/22 14:26:54;;;;;;;25.60;22.00;;;;;;;6.09;100.00;97958.47;6159583;23;20596;-79
2022/11/22 14:29:36;;;;;;;26.33;23.63;;;;;;;5.99;100.00;97963.56;6185381;23;20210;-79
2022/11/22 14:32:20;;;;;;;25.60;22.90;;;;;;;5.98;100.00;97965.41;6160337;23;20206;-79